Boryspil, Ukraine
Current Conditions -  °F | °C
As of 2:00 AM on Saturday 20 Dec 2014 (Local Time) from UKBB Reporting Station
Drizzle Drizzle  
Wind Chill: 34°   Ceiling: 500
Heat Index: 41°   Visibility: 4mi
Dew Point: 41°   Wind: 11mph
Humidity: 100%   Direction: 220°SW
Pressure: 29.77"   Gusts: NA
Location:  50.35°N, 30.95°E
Report Text: UKBB 192300Z 22005MPS 6000 -DZ OVC005 05/05 Q1008 88290050 NOSIG
Loading
Personal Weather Stations






























Interactive Weather Map New forecast layout! Learn more

10-Day Weather Forecast

Advertisements
Track Severe Weather on mobile